Terminal Aerodrome Forecast
Issued by NWS

Home | Current Version | Previous Version | Text Only | Print | Product List | Glossary On
Versions: 1 2 3 4 5 6 7 8 9 10 11 12 13 14 15 16 17 18 19 20 21 22 23 24 25 26 27 28 29 30 31
000
FTUS44 KEWX 071122
TAFSSF
TAF
KSSF 071122Z 0712/0812 03005KT P6SM BKN025
     FM071800 16004KT P6SM BKN025 OVC040
     FM080600 36004KT P6SM OVC025
     FM081000 01018KT P6SM OVC025=

USA.gov is the U.S. government's official web portal to all federal, state and local government web resources and services.